createdAt,value
2018-10-03T00:02:16.758Z,1.70
2018-10-03T00:05:20.912Z,2.33
2018-10-03T00:08:25.034Z,1.70
2018-10-03T00:11:29.363Z,1.70
2018-10-03T00:14:33.482Z,2.37
2018-10-03T00:17:37.621Z,1.83
2018-10-03T00:20:41.774Z,1.90
2018-10-03T00:23:45.909Z,1.73
2018-10-03T00:26:50.034Z,1.90
2018-10-03T00:29:54.159Z,1.60
2018-10-03T00:32:58.312Z,1.63
2018-10-03T00:36:02.458Z,1.70
2018-10-03T00:39:09.693Z,1.60
2018-10-03T00:42:13.827Z,1.73
2018-10-03T00:45:17.952Z,1.87
2018-10-03T00:48:22.087Z,2.00
2018-10-03T00:51:26.219Z,1.90
2018-10-03T00:54:30.374Z,1.90
2018-10-03T00:57:34.509Z,1.77
2018-10-03T01:00:38.646Z,1.70
2018-10-03T01:03:42.778Z,2.00
2018-10-03T01:06:46.898Z,1.90
2018-10-03T01:09:51.071Z,1.50
2018-10-03T01:12:55.221Z,1.70
2018-10-03T01:15:59.394Z,1.57
2018-10-03T01:19:03.515Z,1.90
2018-10-03T01:22:07.670Z,1.40
2018-10-03T01:25:11.806Z,2.00
2018-10-03T01:28:15.931Z,2.00
2018-10-03T01:31:20.067Z,1.80
2018-10-03T01:34:24.194Z,1.50
2018-10-03T01:37:28.303Z,1.90
2018-10-03T01:40:32.423Z,1.70
2018-10-03T01:43:36.667Z,1.70
2018-10-03T01:46:40.785Z,1.90
2018-10-03T01:49:44.909Z,1.90
2018-10-03T01:52:49.094Z,1.50
2018-10-03T01:55:53.225Z,1.53
2018-10-03T01:58:57.355Z,1.83
2018-10-03T02:02:01.476Z,2.20
2018-10-03T02:05:05.672Z,1.40
2018-10-03T02:08:09.809Z,1.70
2018-10-03T02:11:13.930Z,1.60
2018-10-03T02:14:18.098Z,2.07
2018-10-03T02:17:22.239Z,1.60
2018-10-03T02:20:26.362Z,1.80
2018-10-03T02:23:30.486Z,1.53
2018-10-03T02:26:34.608Z,1.67
2018-10-03T02:29:38.754Z,1.83
2018-10-03T02:32:42.894Z,1.47
2018-10-03T02:35:47.032Z,1.50
2018-10-03T02:38:51.158Z,1.50
2018-10-03T02:41:55.294Z,1.50
2018-10-03T02:44:59.422Z,1.60
2018-10-03T02:48:03.563Z,1.40
2018-10-03T02:51:07.686Z,1.80
2018-10-03T02:54:11.842Z,2.00
2018-10-03T02:57:15.966Z,1.60
2018-10-03T03:00:20.096Z,1.40
2018-10-03T03:03:24.228Z,1.70
2018-10-03T03:06:28.366Z,1.50
2018-10-03T03:09:32.546Z,2.23
2018-10-03T03:12:36.665Z,2.30
2018-10-03T03:15:40.803Z,2.10
2018-10-03T03:18:44.932Z,1.40
2018-10-03T03:21:49.127Z,1.80
2018-10-03T03:24:53.263Z,1.40
2018-10-03T03:27:57.448Z,1.37
2018-10-03T03:31:01.567Z,1.40
2018-10-03T03:34:05.714Z,1.60
2018-10-03T03:37:09.844Z,1.60
2018-10-03T03:40:13.982Z,1.53
2018-10-03T03:43:18.107Z,1.33
2018-10-03T03:46:22.238Z,1.53
2018-10-03T03:49:26.467Z,1.80
2018-10-03T03:52:30.603Z,1.50
2018-10-03T03:55:34.758Z,1.43
2018-10-03T03:58:38.904Z,1.33
2018-10-03T04:01:43.044Z,1.80
2018-10-03T04:04:47.183Z,1.67
2018-10-03T04:07:51.327Z,1.80
2018-10-03T04:10:55.448Z,1.93
2018-10-03T04:13:59.570Z,1.70
2018-10-03T04:17:03.730Z,2.37
2018-10-03T04:20:07.855Z,2.23
2018-10-03T04:23:12.003Z,1.90
2018-10-03T04:26:16.131Z,2.00
2018-10-03T04:29:20.340Z,2.30
2018-10-03T04:32:24.534Z,1.77
2018-10-03T04:35:28.693Z,1.80
2018-10-03T04:38:32.794Z,1.90
2018-10-03T04:41:37.422Z,1.40
2018-10-03T04:44:41.538Z,1.87
2018-10-03T04:47:45.675Z,1.37
2018-10-03T04:50:49.815Z,1.33
2018-10-03T04:53:53.953Z,1.43
2018-10-03T04:56:58.079Z,1.27
2018-10-03T05:00:02.218Z,1.40
2018-10-03T05:03:06.854Z,1.67
2018-10-03T05:06:10.984Z,1.40
2018-10-03T05:09:15.119Z,1.70
2018-10-03T05:12:19.246Z,1.23
2018-10-03T05:15:23.371Z,1.60
2018-10-03T05:18:27.490Z,1.20
2018-10-03T05:21:31.611Z,1.60
2018-10-03T05:24:35.771Z,1.83
2018-10-03T05:27:39.933Z,1.30
2018-10-03T05:30:44.058Z,2.30
2018-10-03T05:33:48.263Z,1.40
2018-10-03T05:36:52.463Z,1.70
2018-10-03T05:39:56.575Z,1.30
2018-10-03T05:43:00.722Z,1.43
2018-10-03T05:46:04.846Z,1.30
2018-10-03T05:49:08.999Z,1.33
2018-10-03T05:52:13.130Z,1.20
2018-10-03T05:55:17.262Z,1.80
2018-10-03T05:58:21.406Z,1.50
2018-10-03T06:01:25.555Z,1.30
2018-10-03T06:04:29.787Z,2.13
2018-10-03T06:07:33.927Z,1.77
2018-10-03T06:10:38.062Z,1.20
2018-10-03T06:13:42.278Z,1.13
2018-10-03T06:16:46.410Z,1.40
2018-10-03T06:19:50.541Z,1.30
2018-10-03T06:22:55.495Z,1.37
2018-10-03T06:25:59.663Z,0.87
2018-10-03T06:29:03.867Z,1.43
2018-10-03T06:32:07.985Z,1.33
2018-10-03T06:35:12.115Z,0.90
2018-10-03T06:38:16.245Z,6.47
2018-10-03T06:41:20.461Z,2.77
2018-10-03T06:44:24.678Z,1.20
2018-10-03T06:47:28.816Z,1.40
2018-10-03T06:50:32.963Z,1.30
2018-10-03T06:53:37.114Z,2.23
2018-10-03T06:56:41.255Z,2.80
2018-10-03T06:59:45.423Z,1.90
2018-10-03T07:02:49.543Z,2.20
2018-10-03T07:05:53.807Z,1.57
2018-10-03T07:08:57.879Z,1.60
2018-10-03T07:12:02.067Z,1.93
2018-10-03T07:15:06.203Z,1.47
2018-10-03T07:18:10.356Z,1.73
2018-10-03T07:21:14.510Z,2.73
2018-10-03T07:24:18.631Z,2.37
2018-10-03T07:27:22.767Z,2.30
2018-10-03T07:30:26.898Z,2.17
2018-10-03T07:33:31.092Z,3.90
2018-10-03T07:36:35.238Z,2.50
2018-10-03T07:39:39.371Z,2.10
2018-10-03T07:42:43.767Z,2.13
2018-10-03T07:45:47.906Z,2.20
2018-10-03T07:48:52.027Z,1.53
2018-10-03T07:51:56.247Z,1.83
2018-10-03T07:55:00.386Z,1.57
2018-10-03T07:58:04.515Z,8.40
2018-10-03T08:01:08.711Z,1.43
2018-10-03T08:04:12.845Z,1.20
2018-10-03T08:07:17.002Z,1.87
2018-10-03T08:10:21.188Z,1.87
2018-10-03T08:13:25.319Z,1.90
2018-10-03T08:16:29.461Z,1.40
2018-10-03T08:19:33.582Z,1.80
2018-10-03T08:22:37.723Z,1.70
2018-10-03T08:25:41.866Z,2.10
2018-10-03T08:28:45.997Z,1.83
2018-10-03T08:31:50.155Z,1.87
2018-10-03T08:34:54.304Z,1.50
2018-10-03T08:37:58.559Z,1.70
2018-10-03T08:41:02.701Z,1.87
2018-10-03T08:44:07.011Z,2.00
2018-10-03T08:47:11.146Z,2.10
2018-10-03T08:50:15.318Z,2.10
2018-10-03T08:53:19.432Z,2.20
2018-10-03T08:56:23.564Z,2.30
2018-10-03T08:59:27.683Z,2.37
2018-10-03T09:02:31.826Z,2.13
2018-10-03T09:05:36.032Z,3.10
2018-10-03T09:08:40.169Z,2.27
2018-10-03T09:11:44.382Z,2.40
2018-10-03T09:14:48.428Z,2.60
2018-10-03T09:17:52.674Z,2.33
2018-10-03T09:20:56.811Z,2.80
2018-10-03T09:24:00.947Z,2.80
2018-10-03T09:27:05.091Z,3.10
2018-10-03T09:30:09.224Z,3.27
2018-10-03T09:33:13.360Z,3.23
2018-10-03T09:36:17.531Z,3.90
2018-10-03T09:39:21.672Z,3.70
2018-10-03T09:42:25.799Z,3.20
2018-10-03T09:45:29.919Z,3.40
2018-10-03T09:48:34.047Z,3.47
2018-10-03T09:51:38.295Z,3.73
2018-10-03T09:54:42.440Z,3.00
2018-10-03T09:57:46.562Z,3.17
2018-10-03T10:00:56.179Z,3.50
2018-10-03T10:04:01.416Z,3.30
2018-10-03T10:07:05.555Z,3.20
2018-10-03T10:10:09.688Z,3.03
2018-10-03T10:13:13.823Z,3.17
2018-10-03T10:16:17.959Z,2.63
2018-10-03T10:19:22.083Z,2.97
2018-10-03T10:22:26.215Z,2.80
2018-10-03T10:25:30.351Z,2.77
2018-10-03T10:28:34.488Z,2.40
2018-10-03T10:31:38.643Z,2.60
2018-10-03T10:34:42.737Z,2.80
2018-10-03T10:37:46.986Z,2.80
2018-10-03T10:40:51.161Z,2.33
2018-10-03T10:43:55.302Z,3.33
2018-10-03T10:46:59.430Z,2.60
2018-10-03T10:50:03.572Z,2.90
2018-10-03T10:53:07.884Z,2.70
2018-10-03T10:56:12.096Z,3.30
2018-10-03T10:59:16.235Z,2.47
2018-10-03T11:02:20.411Z,2.93
2018-10-03T11:05:24.597Z,3.27
2018-10-03T11:08:28.727Z,2.80
2018-10-03T11:11:32.863Z,3.00
2018-10-03T11:14:36.983Z,3.10
2018-10-03T11:17:41.114Z,2.73
2018-10-03T11:20:46.107Z,2.60
2018-10-03T11:23:50.944Z,2.73
2018-10-03T11:26:55.967Z,2.63
2018-10-03T11:30:00.190Z,2.67
2018-10-03T11:33:04.333Z,2.90
2018-10-03T11:36:08.459Z,2.60
2018-10-03T11:39:12.587Z,2.83
2018-10-03T11:42:16.745Z,2.80
2018-10-03T11:45:20.882Z,2.90
2018-10-03T11:48:26.093Z,3.30
2018-10-03T11:51:31.961Z,2.87
2018-10-03T11:54:37.871Z,3.60
2018-10-03T11:57:43.357Z,2.37
2018-10-03T12:00:48.324Z,2.30
2018-10-03T12:03:52.515Z,2.60
2018-10-03T12:06:56.720Z,3.07
2018-10-03T12:10:00.852Z,3.23
2018-10-03T12:13:04.994Z,2.93
2018-10-03T12:16:09.159Z,3.33
2018-10-03T12:19:13.289Z,2.83
2018-10-03T12:22:17.405Z,3.20
2018-10-03T12:25:21.631Z,3.20
2018-10-03T12:28:25.994Z,3.40
2018-10-03T12:31:30.132Z,3.47
2018-10-03T12:34:34.255Z,3.10
2018-10-03T12:37:38.379Z,3.03
2018-10-03T12:40:42.515Z,3.30
2018-10-03T12:43:46.639Z,3.23
2018-10-03T12:46:50.778Z,3.93
2018-10-03T12:49:54.910Z,4.13
2018-10-03T12:52:59.051Z,3.80
2018-10-03T12:56:03.392Z,4.60
2018-10-03T12:59:07.515Z,4.57
2018-10-03T13:02:11.650Z,4.70
2018-10-03T13:05:15.787Z,4.87
2018-10-03T13:08:19.910Z,4.70
2018-10-03T13:11:24.038Z,5.43
2018-10-03T13:14:28.155Z,5.30
2018-10-03T13:17:32.295Z,7.10
2018-10-03T13:20:36.426Z,6.13
2018-10-03T13:23:40.547Z,5.77
2018-10-03T13:26:44.669Z,5.00
2018-10-03T13:29:48.790Z,3.90
2018-10-03T13:32:52.922Z,6.00
2018-10-03T13:35:57.083Z,4.00
2018-10-03T13:39:01.227Z,3.23
2018-10-03T13:42:05.503Z,3.77
2018-10-03T13:45:09.631Z,4.23
2018-10-03T13:48:13.779Z,4.70
2018-10-03T13:51:17.907Z,3.77
2018-10-03T13:54:22.035Z,4.60
2018-10-03T13:57:26.167Z,3.97
2018-10-03T14:00:30.307Z,3.50
2018-10-03T14:03:34.435Z,3.77
2018-10-03T14:06:38.646Z,3.50
2018-10-03T14:09:42.775Z,3.77
2018-10-03T14:12:46.951Z,3.50
2018-10-03T14:15:51.221Z,3.40
2018-10-03T14:18:55.340Z,4.00
2018-10-03T14:21:59.471Z,3.23
2018-10-03T14:25:03.604Z,3.30
2018-10-03T14:28:07.825Z,3.87
2018-10-03T14:31:12.033Z,4.13
2018-10-03T14:34:16.155Z,3.50
2018-10-03T14:37:20.283Z,3.60
2018-10-03T14:40:24.515Z,3.67
2018-10-03T14:43:28.638Z,4.20
2018-10-03T14:46:32.811Z,3.33
2018-10-03T14:49:37.206Z,3.60
2018-10-03T14:52:41.393Z,3.07
2018-10-03T14:55:45.508Z,3.10
2018-10-03T14:58:49.965Z,3.50
2018-10-03T15:01:54.106Z,2.77
2018-10-03T15:04:58.242Z,3.03
2018-10-03T15:08:02.379Z,2.80
2018-10-03T15:11:06.535Z,3.00
2018-10-03T15:14:10.666Z,2.67
2018-10-03T15:17:14.845Z,3.10
2018-10-03T15:20:18.961Z,2.80
2018-10-03T15:23:23.103Z,2.73
2018-10-03T15:26:27.222Z,3.03
2018-10-03T15:29:31.338Z,2.30
2018-10-03T15:32:35.515Z,2.50
2018-10-03T15:35:39.639Z,3.37
2018-10-03T15:38:43.771Z,2.70
2018-10-03T15:41:47.966Z,2.50
2018-10-03T15:44:52.074Z,2.77
2018-10-03T15:47:56.207Z,2.40
2018-10-03T15:51:00.342Z,2.70
2018-10-03T15:54:04.534Z,2.80
2018-10-03T15:57:08.651Z,2.90
2018-10-03T16:00:12.787Z,2.97
2018-10-03T16:03:16.938Z,2.70
2018-10-03T16:06:21.080Z,2.67
2018-10-03T16:09:25.240Z,2.83
2018-10-03T16:12:29.331Z,4.13
2018-10-03T16:15:33.544Z,3.40
2018-10-03T16:18:37.658Z,2.63
2018-10-03T16:21:41.801Z,2.73
2018-10-03T16:24:45.955Z,2.83
2018-10-03T16:27:50.078Z,2.77
2018-10-03T16:30:54.250Z,3.63
2018-10-03T16:33:58.402Z,4.30
2018-10-03T16:37:02.575Z,4.23
2018-10-03T16:40:07.356Z,3.33
2018-10-03T16:43:11.520Z,3.60
2018-10-03T16:46:15.627Z,2.93
2018-10-03T16:49:19.766Z,2.67
2018-10-03T16:52:23.898Z,2.70
2018-10-03T16:55:29.225Z,3.00
2018-10-03T16:58:33.351Z,2.57
2018-10-03T17:01:37.918Z,2.50
2018-10-03T17:04:42.076Z,2.80
2018-10-03T17:07:46.202Z,2.53
2018-10-03T17:10:50.331Z,2.90
2018-10-03T17:14:33.132Z,2.50
2018-10-03T17:17:37.270Z,3.00
2018-10-03T17:20:41.395Z,3.23
2018-10-03T17:23:45.558Z,3.30
2018-10-03T17:26:49.666Z,3.03
2018-10-03T17:29:53.821Z,3.20
2018-10-03T17:32:57.992Z,2.80
2018-10-03T17:36:02.109Z,2.90
2018-10-03T17:39:07.346Z,3.67
2018-10-03T17:42:11.478Z,3.10
2018-10-03T17:45:15.626Z,3.63
2018-10-03T17:48:19.743Z,4.10
2018-10-03T17:51:24.167Z,4.00
2018-10-03T17:54:28.323Z,3.67
2018-10-03T17:57:32.472Z,3.80
2018-10-03T18:00:36.617Z,4.73
2018-10-03T18:03:40.751Z,3.60
2018-10-03T18:06:44.876Z,4.57
2018-10-03T18:09:49.006Z,5.17
2018-10-03T18:12:53.184Z,5.27
2018-10-03T18:15:57.307Z,5.53
2018-10-03T18:19:01.475Z,6.00
2018-10-03T18:22:05.680Z,6.23
2018-10-03T18:25:09.779Z,5.67
2018-10-03T18:28:13.898Z,5.40
2018-10-03T18:31:18.027Z,4.40
2018-10-03T18:34:22.207Z,5.13
2018-10-03T18:37:26.335Z,5.00
2018-10-03T18:40:30.455Z,5.17
2018-10-03T18:43:34.656Z,4.90
2018-10-03T18:46:38.818Z,5.20
2018-10-03T18:49:42.914Z,5.33
2018-10-03T18:52:47.107Z,4.87
2018-10-03T18:55:51.718Z,5.20
2018-10-03T18:58:55.867Z,5.30
2018-10-03T19:02:00.031Z,5.37
2018-10-03T19:05:04.167Z,5.77
2018-10-03T19:08:08.310Z,4.70
2018-10-03T19:11:12.522Z,5.03
2018-10-03T19:14:16.658Z,4.97
2018-10-03T19:17:20.802Z,4.87
2018-10-03T19:20:24.951Z,5.10
2018-10-03T19:23:29.158Z,5.23
2018-10-03T19:26:33.326Z,5.30
2018-10-03T19:29:37.470Z,4.73
2018-10-03T19:32:41.656Z,4.93
2018-10-03T19:35:45.815Z,6.00
2018-10-03T19:38:49.932Z,5.20
2018-10-03T19:41:54.098Z,5.50
2018-10-03T19:44:58.251Z,6.10
2018-10-03T19:48:02.512Z,6.13
2018-10-03T19:51:06.603Z,5.30
2018-10-03T19:54:10.751Z,5.00
2018-10-03T19:57:14.900Z,5.90
2018-10-03T20:00:19.112Z,5.20
2018-10-03T20:03:23.408Z,5.87
2018-10-03T20:06:27.487Z,5.60
2018-10-03T20:09:31.620Z,5.83
2018-10-03T20:12:35.756Z,5.93
2018-10-03T20:15:39.987Z,5.30
2018-10-03T20:18:44.542Z,6.70
2018-10-03T20:21:48.814Z,5.43
2018-10-03T20:24:53.003Z,4.83
2018-10-03T20:27:57.140Z,5.93
2018-10-03T20:31:01.294Z,5.50
2018-10-03T20:34:05.476Z,5.13
2018-10-03T20:37:09.558Z,6.57
2018-10-03T20:40:13.719Z,5.80
2018-10-03T20:43:17.931Z,6.50
2018-10-03T20:46:22.175Z,6.70
2018-10-03T20:49:32.949Z,6.03
2018-10-03T20:52:37.130Z,5.90
2018-10-03T20:55:41.287Z,5.87
2018-10-03T20:58:45.472Z,6.20
2018-10-03T21:01:49.611Z,6.30
2018-10-03T21:04:53.794Z,6.80
2018-10-03T21:07:57.948Z,6.57
2018-10-03T21:11:02.122Z,6.30
2018-10-03T21:14:06.307Z,5.67
2018-10-03T21:17:10.602Z,5.33
2018-10-03T21:20:14.775Z,5.47
2018-10-03T21:23:18.981Z,6.10
2018-10-03T21:26:23.151Z,4.80
2018-10-03T21:29:27.314Z,5.07
2018-10-03T21:32:31.506Z,5.40
2018-10-03T21:35:35.687Z,5.50
2018-10-03T21:38:39.842Z,5.20
2018-10-03T21:41:44.004Z,5.63
2018-10-03T21:44:48.442Z,5.23
2018-10-03T21:47:52.598Z,4.83
2018-10-03T21:50:56.808Z,4.70
2018-10-03T21:54:00.955Z,5.40
2018-10-03T21:57:05.118Z,5.40
2018-10-03T22:00:09.949Z,5.13
2018-10-03T22:03:14.195Z,5.93
2018-10-03T22:06:18.347Z,6.13
2018-10-03T22:09:22.494Z,5.63
2018-10-03T22:12:26.650Z,6.17
2018-10-03T22:15:30.806Z,6.13
2018-10-03T22:18:34.967Z,5.83
2018-10-03T22:21:39.127Z,5.53
2018-10-03T22:24:43.283Z,6.63
2018-10-03T22:27:47.423Z,5.30
2018-10-03T22:30:52.006Z,6.03
2018-10-03T22:33:56.191Z,5.47
2018-10-03T22:37:00.350Z,5.90
2018-10-03T22:40:04.526Z,5.67
2018-10-03T22:43:08.718Z,5.53
2018-10-03T22:46:12.871Z,5.47
2018-10-03T22:49:17.059Z,6.47
2018-10-03T22:52:21.222Z,7.43
2018-10-03T22:55:25.379Z,6.97
2018-10-03T22:58:29.528Z,6.60
2018-10-03T23:01:33.696Z,8.30
2018-10-03T23:04:44.573Z,6.93
2018-10-03T23:07:48.742Z,7.17
2018-10-03T23:10:52.899Z,7.20
2018-10-03T23:13:57.025Z,7.27
2018-10-03T23:17:01.196Z,7.03
2018-10-03T23:20:05.350Z,7.33
2018-10-03T23:23:09.524Z,7.33
2018-10-03T23:26:13.670Z,7.00
2018-10-03T23:29:17.831Z,6.93
2018-10-03T23:32:21.975Z,7.47
2018-10-03T23:35:26.132Z,7.30
2018-10-03T23:38:30.285Z,7.70
2018-10-03T23:41:34.521Z,7.77
2018-10-03T23:44:38.663Z,6.73
2018-10-03T23:47:42.815Z,7.93
2018-10-03T23:50:46.978Z,8.23
2018-10-03T23:53:51.143Z,7.90
2018-10-03T23:56:55.308Z,8.07
2018-10-03T23:59:59.463Z,7.50
